createdAt,value
2022-09-26T00:01:42.908Z,2.50
2022-09-26T00:04:24.651Z,1.52
2022-09-26T00:06:56.880Z,1.20
2022-09-26T00:09:27.377Z,2.13
2022-09-26T00:11:55.505Z,3.50
2022-09-26T00:14:28.018Z,3.63
2022-09-26T00:16:56.505Z,2.40
2022-09-26T00:19:24.573Z,2.10
2022-09-26T00:21:52.585Z,3.40
2022-09-26T00:24:20.480Z,2.20
2022-09-26T00:26:48.015Z,3.58
2022-09-26T00:29:15.766Z,3.00
2022-09-26T00:31:47.638Z,3.30
2022-09-26T00:34:19.798Z,6.07
2022-09-26T00:36:49.704Z,3.80
2022-09-26T00:39:17.807Z,4.85
2022-09-26T00:41:45.721Z,2.88
2022-09-26T00:44:48.430Z,4.85
2022-09-26T00:47:59.724Z,5.70
2022-09-26T00:50:36.800Z,4.85
2022-09-26T00:53:17.404Z,3.42
2022-09-26T00:56:06.424Z,3.75
2022-09-26T00:58:43.341Z,4.30
2022-09-26T01:01:12.268Z,3.92
2022-09-26T01:06:10.590Z,3.45
2022-09-26T01:09:01.825Z,8.00
2022-09-26T01:11:31.047Z,5.80
2022-09-26T01:16:27.180Z,9.02
2022-09-26T01:18:55.330Z,4.38
2022-09-26T01:22:32.566Z,4.30
2022-09-26T01:25:30.260Z,3.30
2022-09-26T01:28:00.887Z,4.35
2022-09-26T01:30:57.960Z,3.95
2022-09-26T01:33:59.170Z,5.38
2022-09-26T01:36:56.611Z,4.03
2022-09-26T01:40:24.482Z,3.22
2022-09-26T01:43:21.248Z,4.05
2022-09-26T01:45:51.562Z,4.50
2022-09-26T01:48:33.739Z,5.80
2022-09-26T01:51:12.246Z,4.75
2022-09-26T01:53:43.543Z,4.90
2022-09-26T01:56:22.324Z,3.17
2022-09-26T01:59:32.332Z,4.35
2022-09-26T02:02:19.427Z,2.47
2022-09-26T02:04:53.476Z,2.15
2022-09-26T02:07:55.028Z,1.50
2022-09-26T02:10:39.511Z,2.97
2022-09-26T02:13:30.260Z,2.47
2022-09-26T02:16:16.610Z,1.90
2022-09-26T02:19:00.592Z,2.20
2022-09-26T02:21:28.656Z,1.48
2022-09-26T02:23:56.606Z,1.77
2022-09-26T02:26:24.829Z,1.27
2022-09-26T02:28:52.509Z,1.98
2022-09-26T02:31:25.907Z,2.10
2022-09-26T02:33:54.375Z,1.40
2022-09-26T02:36:24.749Z,1.92
2022-09-26T02:38:53.614Z,3.38
2022-09-26T02:42:18.010Z,4.22
2022-09-26T02:45:02.332Z,1.25
2022-09-26T02:48:14.354Z,4.15
2022-09-26T02:51:22.602Z,3.45
2022-09-26T02:54:21.492Z,3.20
2022-09-26T02:57:25.914Z,1.35
2022-09-26T03:00:10.328Z,1.30
2022-09-26T03:02:44.315Z,1.75
2022-09-26T03:05:29.940Z,0.93
2022-09-26T03:08:08.987Z,0.85
2022-09-26T03:10:39.046Z,0.55
2022-09-26T03:13:14.984Z,1.02
2022-09-26T03:15:51.426Z,3.35
2022-09-26T03:18:28.745Z,0.88
2022-09-26T03:20:56.915Z,0.52
2022-09-26T03:23:27.366Z,0.60
2022-09-26T03:26:10.338Z,0.60
2022-09-26T03:28:44.630Z,0.75
2022-09-26T03:31:12.717Z,3.85
2022-09-26T03:33:52.373Z,1.98
2022-09-26T03:36:23.460Z,2.80
2022-09-26T03:38:51.192Z,2.50
2022-09-26T03:41:45.276Z,1.10
2022-09-26T03:44:32.065Z,1.70
2022-09-26T03:47:18.171Z,2.65
2022-09-26T03:49:49.850Z,0.82
2022-09-26T03:52:18.337Z,1.00
2022-09-26T03:54:46.059Z,0.63
2022-09-26T03:57:17.575Z,1.15
2022-09-26T03:59:50.727Z,0.73
2022-09-26T04:02:20.885Z,0.47
2022-09-26T04:04:54.960Z,1.10
2022-09-26T04:07:22.894Z,0.32
2022-09-26T04:09:50.523Z,0.38
2022-09-26T04:12:20.587Z,0.63
2022-09-26T04:14:48.121Z,0.73
2022-09-26T04:17:16.039Z,1.85
2022-09-26T04:19:47.904Z,3.08
2022-09-26T04:22:15.461Z,0.50
2022-09-26T04:24:44.651Z,0.60
2022-09-26T04:27:15.401Z,1.05
2022-09-26T04:29:46.451Z,1.00
2022-09-26T04:32:19.788Z,0.32
2022-09-26T04:35:10.028Z,1.10
2022-09-26T04:37:38.184Z,1.45
2022-09-26T04:40:06.223Z,1.10
2022-09-26T04:42:37.090Z,0.65
2022-09-26T04:45:06.560Z,1.55
2022-09-26T04:47:34.779Z,3.63
2022-09-26T04:50:35.023Z,1.27
2022-09-26T04:53:09.111Z,2.05
2022-09-26T04:56:13.775Z,1.08
2022-09-26T04:58:43.511Z,2.05
2022-09-26T05:01:16.363Z,3.53
2022-09-26T05:04:13.453Z,1.23
2022-09-26T05:06:42.571Z,0.70
2022-09-26T05:09:21.154Z,1.65
2022-09-26T05:11:53.805Z,1.20
2022-09-26T05:14:21.964Z,1.48
2022-09-26T05:19:18.939Z,1.10
2022-09-26T05:22:12.486Z,0.80
2022-09-26T05:24:59.940Z,0.80
2022-09-26T05:27:27.710Z,1.95
2022-09-26T05:29:55.855Z,3.42
2022-09-26T05:34:53.199Z,3.10
2022-09-26T05:37:22.670Z,6.03
2022-09-26T05:40:09.507Z,2.25
2022-09-26T05:42:42.221Z,3.33
2022-09-26T05:45:10.603Z,1.45
2022-09-26T05:47:38.202Z,3.00
2022-09-26T05:50:10.921Z,2.03
2022-09-26T05:52:40.051Z,9.00
2022-09-26T05:55:11.990Z,1.33
2022-09-26T05:58:06.398Z,5.30
2022-09-26T06:01:13.168Z,5.63
2022-09-26T06:03:46.312Z,6.50
2022-09-26T06:06:22.147Z,3.60
2022-09-26T06:08:55.898Z,5.28
2022-09-26T06:11:28.046Z,3.78
2022-09-26T06:13:56.011Z,5.18
2022-09-26T06:16:23.890Z,3.03
2022-09-26T06:18:53.040Z,1.52
2022-09-26T06:23:52.737Z,2.92
2022-09-26T06:26:25.417Z,1.30
2022-09-26T06:29:00.221Z,1.20
2022-09-26T06:31:31.038Z,0.85
2022-09-26T06:34:13.140Z,3.40
2022-09-26T06:36:50.204Z,2.08
2022-09-26T06:39:18.035Z,1.27
2022-09-26T06:41:48.007Z,0.68
2022-09-26T06:44:50.828Z,0.65
2022-09-26T06:47:24.391Z,0.20
2022-09-26T06:50:11.965Z,0.57
2022-09-26T06:52:44.184Z,1.88
2022-09-26T06:55:14.707Z,2.10
2022-09-26T06:57:44.672Z,0.20
2022-09-26T07:00:16.512Z,3.00
2022-09-26T07:03:05.740Z,2.25
2022-09-26T07:06:03.397Z,0.30
2022-09-26T07:09:00.401Z,0.50
2022-09-26T07:12:02.763Z,0.13
2022-09-26T07:14:11.623Z,0.25
2022-09-26T07:16:40.064Z,0.98
2022-09-26T07:19:23.224Z,1.05
2022-09-26T07:22:03.025Z,2.17
2022-09-26T07:24:46.363Z,2.38
2022-09-26T07:27:14.596Z,2.15
2022-09-26T07:29:43.776Z,2.35
2022-09-26T07:32:11.727Z,2.28
2022-09-26T07:34:44.878Z,6.88
2022-09-26T07:37:17.291Z,4.72
2022-09-26T07:39:51.197Z,5.90
2022-09-26T07:42:21.763Z,5.65
2022-09-26T07:45:21.944Z,3.25
2022-09-26T07:47:57.084Z,5.15
2022-09-26T07:50:58.990Z,4.50
2022-09-26T07:53:42.637Z,1.25
2022-09-26T07:56:28.443Z,4.53
2022-09-26T07:59:16.290Z,3.90
2022-09-26T08:01:54.170Z,6.13
2022-09-26T08:04:40.473Z,3.03
2022-09-26T08:07:08.604Z,4.05
2022-09-26T08:09:41.425Z,2.75
2022-09-26T08:12:29.249Z,3.30
2022-09-26T08:15:19.873Z,3.13
2022-09-26T08:17:47.905Z,2.53
2022-09-26T08:20:15.509Z,2.25
2022-09-26T08:22:43.281Z,1.58
2022-09-26T08:25:13.441Z,1.40
2022-09-26T08:27:51.667Z,2.20
2022-09-26T08:30:20.244Z,4.38
2022-09-26T08:32:54.981Z,2.78
2022-09-26T08:35:22.906Z,1.42
2022-09-26T08:37:57.144Z,3.50
2022-09-26T08:41:09.827Z,1.30
2022-09-26T08:44:02.670Z,1.52
2022-09-26T08:47:06.555Z,4.82
2022-09-26T08:50:47.414Z,2.50
2022-09-26T08:53:40.976Z,4.97
2022-09-26T08:56:26.703Z,2.30
2022-09-26T08:58:56.881Z,1.83
2022-09-26T09:01:33.193Z,2.10
2022-09-26T09:04:51.548Z,1.60
2022-09-26T09:07:25.339Z,7.45
2022-09-26T09:10:01.497Z,1.98
2022-09-26T09:16:37.987Z,4.05
2022-09-26T09:19:51.324Z,1.50
2022-09-26T09:22:40.915Z,2.20
2022-09-26T09:25:25.171Z,1.98
2022-09-26T09:28:16.398Z,4.40
2022-09-26T09:31:00.063Z,2.20
2022-09-26T09:33:52.477Z,3.63
2022-09-26T09:36:46.427Z,2.50
2022-09-26T09:39:44.820Z,1.90
2022-09-26T09:42:43.500Z,1.38
2022-09-26T09:45:49.986Z,6.30
2022-09-26T09:48:18.793Z,5.00
2022-09-26T09:51:33.263Z,3.33
2022-09-26T09:54:25.619Z,6.22
2022-09-26T10:00:17.811Z,2.97
2022-09-26T10:03:55.431Z,5.30
2022-09-26T10:06:46.120Z,5.57
2022-09-26T10:09:38.240Z,3.55
2022-09-26T10:12:32.988Z,3.15
2022-09-26T10:15:27.468Z,0.80
2022-09-26T10:18:27.121Z,2.30
2022-09-26T10:21:19.059Z,5.55
2022-09-26T10:23:50.952Z,2.28
2022-09-26T10:26:39.774Z,4.53
2022-09-26T10:29:35.420Z,3.08
2022-09-26T10:32:04.586Z,1.60
2022-09-26T10:34:38.151Z,2.17
2022-09-26T10:37:29.717Z,3.65
2022-09-26T10:40:45.966Z,6.43
2022-09-26T10:43:38.226Z,3.22
2022-09-26T10:46:21.527Z,6.45
2022-09-26T10:49:15.461Z,5.15
2022-09-26T10:52:27.954Z,3.85
2022-09-26T10:55:32.850Z,3.88
2022-09-26T10:58:11.408Z,1.75
2022-09-26T11:00:45.030Z,3.65
2022-09-26T11:03:34.419Z,1.70
2022-09-26T11:06:34.330Z,2.85
2022-09-26T11:09:28.181Z,1.48
2022-09-26T11:12:26.530Z,7.20
2022-09-26T11:15:01.367Z,6.95
2022-09-26T11:17:55.570Z,1.15
2022-09-26T11:20:47.149Z,1.48
2022-09-26T11:23:52.180Z,2.08
2022-09-26T11:26:33.645Z,7.95
2022-09-26T11:29:27.830Z,7.43
2022-09-26T11:32:06.422Z,1.27
2022-09-26T11:35:06.178Z,5.93
2022-09-26T11:37:56.466Z,3.53
2022-09-26T11:41:03.645Z,2.75
2022-09-26T11:44:11.230Z,2.50
2022-09-26T11:47:53.992Z,6.40
2022-09-26T11:50:49.349Z,2.95
2022-09-26T11:53:48.400Z,3.38
2022-09-26T11:56:43.682Z,7.72
2022-09-26T11:59:52.802Z,4.60
2022-09-26T12:05:48.941Z,7.45
2022-09-26T12:08:30.190Z,7.55
2022-09-26T12:11:25.819Z,3.72
2022-09-26T12:14:27.530Z,3.78
2022-09-26T12:17:05.725Z,4.72
2022-09-26T12:19:46.986Z,4.95
2022-09-26T12:22:36.128Z,3.55
2022-09-26T12:25:10.859Z,2.13
2022-09-26T12:28:12.226Z,4.97
2022-09-26T12:31:31.857Z,2.40
2022-09-26T12:34:22.197Z,4.00
2022-09-26T12:37:36.439Z,2.42
2022-09-26T12:41:04.849Z,4.93
2022-09-26T12:44:33.498Z,3.38
2022-09-26T12:50:01.114Z,5.18
2022-09-26T12:53:02.219Z,4.47
2022-09-26T12:56:07.157Z,6.57
2022-09-26T12:59:07.081Z,6.22
2022-09-26T13:01:44.967Z,7.43
2022-09-26T13:04:57.579Z,5.85
2022-09-26T13:08:12.730Z,5.63
2022-09-26T13:11:03.541Z,7.13
2022-09-26T13:13:37.082Z,7.70
2022-09-26T13:16:44.393Z,7.43
2022-09-26T13:19:23.673Z,6.32
2022-09-26T13:22:05.082Z,10.52
2022-09-26T13:24:49.213Z,8.57
2022-09-26T13:27:37.403Z,6.43
2022-09-26T13:30:18.081Z,8.47
2022-09-26T13:33:07.315Z,8.27
2022-09-26T13:38:19.257Z,8.80
2022-09-26T13:41:16.988Z,11.20
2022-09-26T13:43:49.565Z,9.65
2022-09-26T13:46:40.055Z,17.60
2022-09-26T13:49:49.965Z,14.93
2022-09-26T13:52:40.909Z,13.23
2022-09-26T13:55:21.421Z,14.70
2022-09-26T13:57:59.992Z,13.77
2022-09-26T14:00:30.676Z,16.10
2022-09-26T14:03:13.281Z,11.68
2022-09-26T14:05:47.030Z,13.07
2022-09-26T14:08:53.196Z,12.13
2022-09-26T14:11:27.759Z,9.60
2022-09-26T14:14:17.863Z,5.50
2022-09-26T14:16:59.650Z,8.65
2022-09-26T14:19:41.386Z,11.65
2022-09-26T14:22:19.069Z,12.77
2022-09-26T14:24:50.786Z,12.35
2022-09-26T14:27:18.363Z,12.98
2022-09-26T14:30:01.201Z,9.52
2022-09-26T14:32:46.057Z,11.85
2022-09-26T14:35:27.511Z,13.35
2022-09-26T14:38:17.465Z,10.98
2022-09-26T14:40:59.255Z,11.30
2022-09-26T14:43:31.425Z,8.57
2022-09-26T14:46:20.009Z,11.00
2022-09-26T14:48:47.964Z,10.15
2022-09-26T14:51:19.395Z,10.13
2022-09-26T14:54:05.984Z,9.30
2022-09-26T14:56:42.447Z,12.30
2022-09-26T14:59:25.321Z,17.52
2022-09-26T15:02:15.192Z,11.25
2022-09-26T15:04:47.236Z,9.65
2022-09-26T15:07:26.438Z,9.13
2022-09-26T15:10:18.867Z,10.05
2022-09-26T15:13:20.810Z,12.63
2022-09-26T15:16:52.834Z,8.30
2022-09-26T15:19:28.220Z,7.72
2022-09-26T15:22:00.257Z,10.50
2022-09-26T15:24:36.818Z,8.73
2022-09-26T15:27:19.493Z,10.18
2022-09-26T15:30:16.515Z,8.60
2022-09-26T15:32:49.147Z,8.98
2022-09-26T15:35:17.154Z,13.07
2022-09-26T15:37:45.901Z,13.73
2022-09-26T15:40:24.120Z,11.95
2022-09-26T15:43:13.781Z,10.40
2022-09-26T15:45:47.829Z,8.40
2022-09-26T15:48:20.368Z,9.20
2022-09-26T15:50:55.451Z,15.93
2022-09-26T15:53:26.117Z,7.93
2022-09-26T15:56:04.239Z,10.23
2022-09-26T15:58:51.457Z,10.23
2022-09-26T16:01:22.938Z,9.10
2022-09-26T16:04:04.910Z,10.85
2022-09-26T16:06:43.138Z,9.55
2022-09-26T16:09:14.251Z,7.80
2022-09-26T16:11:51.008Z,11.90
2022-09-26T16:14:58.687Z,11.55
2022-09-26T16:17:38.756Z,14.88
2022-09-26T16:20:18.760Z,16.80
2022-09-26T16:22:51.618Z,15.50
2022-09-26T16:25:47.923Z,16.13
2022-09-26T16:28:17.878Z,16.20
2022-09-26T16:30:59.236Z,13.57
2022-09-26T16:33:33.229Z,13.65
2022-09-26T16:36:28.879Z,14.55
2022-09-26T16:39:07.131Z,9.48
2022-09-26T16:42:02.357Z,2.35
2022-09-26T16:44:39.616Z,0.93
2022-09-26T16:47:47.817Z,3.58
2022-09-26T16:50:28.947Z,2.35
2022-09-26T16:52:57.833Z,2.65
2022-09-26T16:55:27.354Z,6.57
2022-09-26T16:58:04.251Z,9.25
2022-09-26T17:00:53.164Z,9.02
2022-09-26T17:03:27.714Z,6.72
2022-09-26T17:05:57.532Z,6.70
2022-09-26T17:08:28.262Z,13.30
2022-09-26T17:11:01.877Z,12.57
2022-09-26T17:13:33.950Z,8.00
2022-09-26T17:16:03.739Z,9.60
2022-09-26T17:18:33.376Z,11.63
2022-09-26T17:21:02.159Z,10.75
2022-09-26T17:23:40.331Z,14.23
2022-09-26T17:26:19.872Z,14.18
2022-09-26T17:28:47.782Z,16.60
2022-09-26T17:31:21.237Z,12.80
2022-09-26T17:33:52.632Z,13.15
2022-09-26T17:36:25.361Z,14.00
2022-09-26T17:38:53.607Z,16.15
2022-09-26T17:41:22.902Z,16.07
2022-09-26T17:43:58.322Z,16.20
2022-09-26T17:46:27.093Z,21.48
2022-09-26T17:48:55.381Z,17.48
2022-09-26T17:51:24.089Z,17.33
2022-09-26T17:53:52.704Z,18.98
2022-09-26T17:56:20.852Z,18.67
2022-09-26T17:58:49.896Z,18.35
2022-09-26T18:01:34.339Z,18.80
2022-09-26T18:04:07.365Z,20.83
2022-09-26T18:06:36.952Z,17.92
2022-09-26T18:09:09.479Z,17.67
2022-09-26T18:11:38.299Z,19.73
2022-09-26T18:14:08.083Z,17.00
2022-09-26T18:16:35.784Z,20.50
2022-09-26T18:19:07.621Z,16.65
2022-09-26T18:21:36.397Z,17.10
2022-09-26T18:24:06.826Z,17.20
2022-09-26T18:26:42.310Z,18.30
2022-09-26T18:29:13.605Z,22.60
2022-09-26T18:31:44.391Z,17.70
2022-09-26T18:34:18.884Z,17.75
2022-09-26T18:36:48.953Z,20.10
2022-09-26T18:39:17.094Z,21.45
2022-09-26T18:41:45.296Z,19.38
2022-09-26T18:44:17.776Z,20.63
2022-09-26T18:46:47.192Z,21.17
2022-09-26T18:51:42.930Z,22.00
2022-09-26T18:54:16.809Z,20.33
2022-09-26T18:57:04.010Z,17.48
2022-09-26T18:59:32.145Z,15.55
2022-09-26T19:02:01.323Z,17.27
2022-09-26T19:04:33.443Z,15.32
2022-09-26T19:07:06.573Z,13.15
2022-09-26T19:09:35.781Z,12.13
2022-09-26T19:12:04.541Z,11.13
2022-09-26T19:14:32.526Z,12.70
2022-09-26T19:17:00.408Z,11.00
2022-09-26T19:19:32.556Z,12.05
2022-09-26T19:22:08.293Z,8.80
2022-09-26T19:24:43.625Z,7.68
2022-09-26T19:27:17.779Z,13.63
2022-09-26T19:30:02.618Z,14.48
2022-09-26T19:32:39.599Z,11.50
2022-09-26T19:35:39.158Z,18.13
2022-09-26T19:38:22.132Z,14.80
2022-09-26T19:40:51.664Z,7.97
2022-09-26T19:45:52.933Z,7.38
2022-09-26T19:48:23.753Z,6.10
2022-09-26T19:50:52.647Z,5.75
2022-09-26T19:53:26.405Z,6.32
2022-09-26T19:55:55.779Z,9.90
2022-09-26T19:58:27.983Z,11.43
2022-09-26T20:00:59.183Z,12.30
2022-09-26T20:03:40.144Z,12.13
2022-09-26T20:06:25.862Z,12.77
2022-09-26T20:09:01.579Z,9.88
2022-09-26T20:11:29.970Z,8.27
2022-09-26T20:14:30.123Z,8.95
2022-09-26T20:17:02.101Z,8.93
2022-09-26T20:19:40.454Z,9.18
2022-09-26T20:22:20.161Z,8.43
2022-09-26T20:27:26.828Z,7.20
2022-09-26T20:30:14.757Z,5.57
2022-09-26T20:32:42.636Z,6.75
2022-09-26T20:35:16.526Z,5.50
2022-09-26T20:37:44.851Z,6.18
2022-09-26T20:40:22.742Z,3.00
2022-09-26T20:42:59.341Z,2.75
2022-09-26T20:45:40.845Z,4.72
2022-09-26T20:48:26.854Z,2.53
2022-09-26T20:50:55.640Z,2.88
2022-09-26T20:53:25.082Z,3.15
2022-09-26T20:55:57.339Z,4.03
2022-09-26T20:58:25.551Z,3.90
2022-09-26T21:00:53.297Z,4.55
2022-09-26T21:03:25.263Z,6.18
2022-09-26T21:05:53.194Z,5.30
2022-09-26T21:08:30.437Z,3.53
2022-09-26T21:10:59.380Z,2.20
2022-09-26T21:13:26.834Z,3.13
2022-09-26T21:15:54.392Z,2.83
2022-09-26T21:18:24.924Z,1.55
2022-09-26T21:20:54.039Z,2.67
2022-09-26T21:23:48.087Z,3.42
2022-09-26T21:26:31.679Z,3.15
2022-09-26T21:29:05.928Z,2.88
2022-09-26T21:31:36.120Z,6.43
2022-09-26T21:34:26.521Z,2.80
2022-09-26T21:36:57.045Z,3.95
2022-09-26T21:39:25.823Z,1.55
2022-09-26T21:41:58.719Z,1.40
2022-09-26T21:44:34.072Z,1.23
2022-09-26T21:47:01.626Z,2.78
2022-09-26T21:49:29.923Z,1.42
2022-09-26T21:52:12.050Z,2.08
2022-09-26T21:54:44.357Z,1.83
2022-09-26T21:57:27.199Z,2.75
2022-09-26T21:59:58.170Z,1.85
2022-09-26T22:02:27.086Z,2.00
2022-09-26T22:04:54.558Z,1.30
2022-09-26T22:07:23.186Z,1.90
2022-09-26T22:09:50.664Z,1.33
2022-09-26T22:12:18.857Z,1.45
2022-09-26T22:14:46.589Z,5.17
2022-09-26T22:17:14.189Z,1.55
2022-09-26T22:19:41.693Z,1.58
2022-09-26T22:22:10.721Z,5.00
2022-09-26T22:24:38.359Z,1.33
2022-09-26T22:27:05.944Z,1.95
2022-09-26T22:29:33.796Z,2.30
2022-09-26T22:32:03.838Z,0.90
2022-09-26T22:34:32.569Z,4.28
2022-09-26T22:37:00.496Z,0.80
2022-09-26T22:39:27.982Z,0.88
2022-09-26T22:41:55.474Z,1.92
2022-09-26T22:44:23.271Z,0.65
2022-09-26T22:47:09.316Z,1.65
2022-09-26T22:49:37.157Z,0.77
2022-09-26T22:52:04.788Z,1.13
2022-09-26T22:54:32.307Z,1.95
2022-09-26T22:57:00.074Z,3.10
2022-09-26T22:59:27.673Z,1.88
2022-09-26T23:01:57.256Z,5.65
2022-09-26T23:04:45.800Z,4.72
2022-09-26T23:07:15.653Z,5.93
2022-09-26T23:09:43.733Z,7.55
2022-09-26T23:12:12.219Z,11.55
2022-09-26T23:14:39.811Z,11.00
2022-09-26T23:17:07.785Z,10.68
2022-09-26T23:19:35.399Z,9.48
2022-09-26T23:22:03.364Z,5.38
2022-09-26T23:24:31.159Z,2.85
2022-09-26T23:26:59.801Z,5.70
2022-09-26T23:29:27.403Z,3.45
2022-09-26T23:31:55.174Z,3.60
2022-09-26T23:34:22.928Z,7.15
2022-09-26T23:36:50.522Z,8.80
2022-09-26T23:39:18.780Z,8.93
2022-09-26T23:41:46.274Z,9.98
2022-09-26T23:44:14.286Z,10.95
2022-09-26T23:46:42.128Z,9.68
2022-09-26T23:49:09.728Z,8.77
2022-09-26T23:51:37.328Z,7.45
2022-09-26T23:54:05.269Z,10.68
2022-09-26T23:56:32.726Z,12.13
2022-09-26T23:59:00.188Z,14.85
